Airfield :
LOGIN :

Register | Disclaimer

   EN    FR    IT 

 










Legend :    VFR   Marginal VFR   IFR   Intensive IFR   Very Intensive IFR
Visi :
Ceiling :
>= 8 km
>= 3000ft
5 to 8 km
1000 to 3000 ft
1500m to 5 km
500 to 1000 ft
800 to 1500m
200 to 500 ft
< 800m
< 200 ft
Symbols :   Thunderstorms  Fog  Heavy snow  Heavy precipitations  Wind > 20 kt
SIGMETs :     Misc.  Thunderstorms  Icing  Turbulence  Mountain Waves  Volcanic Ashes







- Airport Elevation : 3 ft
- IATA code : LWR


EHLW - Leuuwarden Air Base

CURRENT METAR :
  • 181642Z AUTO 21005KT 9999 OVC240 09/07 Q1013 BLU 21005KT CAVOK RMK R23

EXPIRED METARs :
  • 181625Z AUTO 21004KT 9999 OVC240 09/07 Q1013 BLU 22009KT CAVOK RMK R23
  • 181555Z AUTO 20005KT 170V230 9999 OVC240 10/08 Q1014 BLU 22009KT CAVOK RMK R23
  • 181525Z AUTO 20006KT 9999 OVC250 11/08 Q1014 BLU 22009KT CAVOK RMK R23
  • 181455Z AUTO 20005KT 170V230 9999 OVC250 11/08 Q1014 BLU 22009KT CAVOK RMK R23
  • 181425Z AUTO 21008KT 9999 OVC260 11/07 Q1014 BLU 22009KT CAVOK RMK R23
  • 181355Z AUTO 21007KT 9999 OVC260 11/07 Q1014 BLU 22009KT CAVOK RMK R23

TAF TAF EHLW
Valid from the 18 at 14:00 until the 19 at 02:00 UTC


181312Z 1814/1902 21008KT CAVOK
PROB30
TEMPO 1817/1821 BKN006
TEMPO 1821/1902 4500 RADZ SCT015 BKN025
No reported NOTAMs for that airfield.



MET'MAP, your aeronautical weather chart ! - Copyright ORBIFLY December 2007 - Disclaimer

ORBIFLY MET'MAP TEAM :

Programming & Development : Alexandra Zaïnal
Concept & Development : Baudouin d'Aumeries
Co-Development & Prog : Marc-Olivier Méhu
Technical & hardware support : Manuel Goepfert

Contact : metmap@orbifly.com




SOURCES & CREDITS :

   NOAA